createdAt,value
2023-05-21T00:00:56.101Z,15.81
2023-05-21T00:03:41.989Z,15.77
2023-05-21T00:06:09.960Z,15.73
2023-05-21T00:08:38.359Z,15.72
2023-05-21T00:11:06.691Z,15.68
2023-05-21T00:13:34.494Z,15.63
2023-05-21T00:16:02.388Z,15.56
2023-05-21T00:18:32.298Z,15.47
2023-05-21T00:24:15.813Z,15.28
2023-05-21T00:26:44.629Z,15.14
2023-05-21T00:29:12.466Z,15.16
2023-05-21T00:31:41.185Z,15.13
2023-05-21T00:34:09.049Z,15.10
2023-05-21T00:36:36.896Z,15.11
2023-05-21T00:39:05.215Z,15.10
2023-05-21T00:41:35.734Z,15.03
2023-05-21T00:44:03.503Z,15.03
2023-05-21T00:46:31.608Z,15.00
2023-05-21T00:49:01.030Z,14.97
2023-05-21T00:51:30.479Z,14.88
2023-05-21T00:53:59.079Z,14.81
2023-05-21T00:56:27.649Z,14.76
2023-05-21T00:58:57.520Z,14.69
2023-05-21T01:01:34.460Z,14.64
2023-05-21T01:04:03.127Z,14.58
2023-05-21T01:06:34.691Z,14.56
2023-05-21T01:09:05.467Z,14.51
2023-05-21T01:12:00.976Z,14.48
2023-05-21T01:14:31.361Z,14.38
2023-05-21T01:17:02.376Z,14.36
2023-05-21T01:19:32.936Z,14.35
2023-05-21T01:22:05.329Z,14.29
2023-05-21T01:24:33.794Z,14.24
2023-05-21T01:27:03.669Z,14.15
2023-05-21T01:29:31.852Z,14.12
2023-05-21T01:32:11.613Z,14.09
2023-05-21T01:34:54.001Z,14.04
2023-05-21T01:37:30.138Z,13.95
2023-05-21T01:40:06.101Z,13.93
2023-05-21T01:42:37.669Z,13.88
2023-05-21T01:45:08.028Z,13.80
2023-05-21T01:47:37.490Z,13.72
2023-05-21T01:50:06.905Z,13.67
2023-05-21T01:52:35.489Z,13.63
2023-05-21T01:55:06.003Z,13.54
2023-05-21T01:57:33.772Z,13.47
2023-05-21T02:00:03.383Z,13.46
2023-05-21T02:02:31.262Z,13.45
2023-05-21T02:05:00.513Z,13.38
2023-05-21T02:07:29.263Z,13.28
2023-05-21T02:09:57.292Z,13.23
2023-05-21T02:12:26.101Z,13.22
2023-05-21T02:14:54.444Z,13.21
2023-05-21T02:17:24.438Z,13.19
2023-05-21T02:19:52.434Z,13.11
2023-05-21T02:22:20.776Z,13.06
2023-05-21T02:24:49.328Z,13.02
2023-05-21T02:27:17.825Z,12.96
2023-05-21T02:29:46.218Z,12.91
2023-05-21T02:32:13.986Z,12.89
2023-05-21T02:34:43.993Z,12.84
2023-05-21T02:37:12.036Z,12.79
2023-05-21T02:39:39.877Z,12.80
2023-05-21T02:42:07.630Z,12.79
2023-05-21T02:44:35.594Z,12.80
2023-05-21T02:47:03.492Z,12.81
2023-05-21T02:49:31.349Z,12.77
2023-05-21T02:51:59.192Z,12.74
2023-05-21T02:54:27.050Z,12.76
2023-05-21T02:56:54.875Z,12.75
2023-05-21T02:59:22.992Z,12.73
2023-05-21T03:01:50.944Z,12.75
2023-05-21T03:04:21.984Z,12.76
2023-05-21T03:06:55.162Z,12.76
2023-05-21T03:09:23.075Z,12.74
2023-05-21T03:11:51.447Z,12.73
2023-05-21T03:14:19.480Z,12.69
2023-05-21T03:22:22.544Z,12.61
2023-05-21T03:24:50.431Z,12.62
2023-05-21T03:27:18.392Z,12.73
2023-05-21T03:29:46.317Z,12.79
2023-05-21T03:32:14.318Z,12.85
2023-05-21T03:34:42.359Z,12.89
2023-05-21T03:37:10.322Z,12.94
2023-05-21T03:39:38.199Z,12.96
2023-05-21T03:42:06.263Z,13.03
2023-05-21T03:50:56.150Z,13.14
2023-05-21T03:53:24.472Z,13.13
2023-05-21T03:55:55.449Z,13.23
2023-05-21T03:58:23.929Z,13.30
2023-05-21T04:00:51.683Z,13.40
2023-05-21T04:03:19.702Z,13.49
2023-05-21T04:05:47.627Z,13.57
2023-05-21T04:08:16.169Z,13.64
2023-05-21T04:10:44.296Z,13.76
2023-05-21T04:13:12.521Z,13.84
2023-05-21T04:15:40.404Z,13.92
2023-05-21T04:18:11.064Z,14.01
2023-05-21T04:20:50.475Z,14.13
2023-05-21T04:23:21.677Z,14.27
2023-05-21T04:29:05.131Z,14.44
2023-05-21T04:31:33.420Z,14.58
2023-05-21T04:34:01.730Z,14.73
2023-05-21T04:36:30.386Z,14.91
2023-05-21T04:38:58.348Z,15.05
2023-05-21T04:41:26.344Z,15.17
2023-05-21T04:43:55.487Z,15.31
2023-05-21T04:46:26.885Z,15.46
2023-05-21T04:48:58.150Z,15.59
2023-05-21T04:51:26.743Z,15.75
2023-05-21T04:53:54.755Z,15.92
2023-05-21T04:56:22.723Z,16.07
2023-05-21T04:58:56.682Z,16.24
2023-05-21T05:04:48.718Z,16.39
2023-05-21T05:08:50.750Z,16.58
2023-05-21T05:17:57.946Z,17.12
2023-05-21T05:20:25.691Z,17.34
2023-05-21T05:22:53.609Z,17.57
2023-05-21T05:25:21.263Z,17.78
2023-05-21T05:27:48.945Z,17.96
2023-05-21T05:30:16.670Z,18.14
2023-05-21T05:32:44.350Z,18.31
2023-05-21T05:35:12.640Z,18.46
2023-05-21T05:37:40.292Z,18.65
2023-05-21T05:40:08.472Z,18.83
2023-05-21T05:42:36.085Z,19.30
2023-05-21T05:45:04.074Z,20.11
2023-05-21T05:47:32.915Z,20.85
2023-05-21T05:50:00.712Z,21.38
2023-05-21T05:52:30.566Z,21.88
2023-05-21T05:54:58.302Z,22.42
2023-05-21T05:57:25.949Z,22.77
2023-05-21T05:59:54.865Z,23.01
2023-05-21T06:02:49.106Z,23.47
2023-05-21T06:05:17.246Z,23.60
2023-05-21T06:08:47.627Z,23.89
2023-05-21T06:11:17.189Z,24.36
2023-05-21T06:13:44.937Z,24.66
2023-05-21T06:16:13.164Z,25.06
2023-05-21T06:18:42.027Z,25.44
2023-05-21T06:21:08.590Z,25.78
2023-05-21T06:23:37.125Z,26.09
2023-05-21T06:26:04.123Z,26.20
2023-05-21T06:28:30.496Z,26.39
2023-05-21T06:31:01.621Z,26.66
2023-05-21T06:33:40.231Z,26.98
2023-05-21T06:36:33.421Z,27.08
2023-05-21T06:39:01.263Z,27.20
2023-05-21T06:41:29.284Z,27.35
2023-05-21T06:43:57.140Z,27.24
2023-05-21T06:46:25.203Z,26.33
2023-05-21T06:48:55.179Z,26.12
2023-05-21T06:51:23.133Z,26.42
2023-05-21T06:53:51.968Z,26.51
2023-05-21T06:56:22.230Z,26.84
2023-05-21T07:01:33.779Z,27.54
2023-05-21T07:04:02.410Z,27.73
2023-05-21T07:06:37.198Z,27.98
2023-05-21T07:09:06.646Z,27.98
2023-05-21T07:11:37.771Z,27.89
2023-05-21T07:14:09.889Z,28.20
2023-05-21T07:16:40.167Z,28.58
2023-05-21T07:19:09.089Z,28.80
2023-05-21T07:21:38.001Z,29.02
2023-05-21T07:24:10.404Z,29.38
2023-05-21T07:26:40.398Z,29.80
2023-05-21T07:29:19.268Z,29.89
2023-05-21T07:31:47.107Z,30.14
2023-05-21T07:34:15.256Z,30.36
2023-05-21T07:36:43.192Z,30.26
2023-05-21T07:39:11.572Z,30.18
2023-05-21T07:41:39.400Z,30.31
2023-05-21T07:44:08.373Z,30.36
2023-05-21T07:46:37.038Z,30.39
2023-05-21T07:49:04.850Z,30.56
2023-05-21T07:51:33.744Z,30.34
2023-05-21T07:54:05.167Z,30.58
2023-05-21T07:56:33.526Z,31.02
2023-05-21T07:59:02.446Z,31.34
2023-05-21T08:01:31.477Z,31.28
2023-05-21T08:04:18.366Z,31.07
2023-05-21T08:06:55.844Z,31.13
2023-05-21T08:09:26.175Z,31.07
2023-05-21T08:11:57.138Z,31.20
2023-05-21T08:14:25.388Z,30.97
2023-05-21T08:16:53.602Z,30.91
2023-05-21T08:19:21.467Z,30.97
2023-05-21T08:21:51.315Z,30.89
2023-05-21T08:24:21.018Z,30.78
2023-05-21T08:26:50.710Z,30.90
2023-05-21T08:29:18.473Z,31.14
2023-05-21T08:31:46.442Z,31.44
2023-05-21T08:34:14.436Z,31.66
2023-05-21T08:36:43.352Z,31.88
2023-05-21T08:39:11.292Z,32.20
2023-05-21T08:44:38.615Z,32.00
2023-05-21T08:47:10.432Z,31.34
2023-05-21T08:49:39.653Z,31.04
2023-05-21T08:52:08.222Z,31.22
2023-05-21T08:54:37.974Z,31.50
2023-05-21T08:57:22.170Z,31.24
2023-05-21T09:02:51.710Z,31.56
2023-05-21T09:05:20.823Z,31.97
2023-05-21T09:08:07.313Z,31.93
2023-05-21T09:10:41.650Z,31.89
2023-05-21T09:13:10.417Z,31.86
2023-05-21T09:15:39.302Z,31.05
2023-05-21T09:18:07.251Z,30.46
2023-05-21T09:20:35.232Z,31.52
2023-05-21T09:23:05.093Z,31.39
2023-05-21T09:25:33.375Z,31.11
2023-05-21T09:28:01.191Z,31.48
2023-05-21T09:30:31.166Z,31.18
2023-05-21T09:33:00.447Z,31.45
2023-05-21T09:35:28.433Z,31.41
2023-05-21T09:37:57.482Z,31.62
2023-05-21T09:40:25.337Z,32.19
2023-05-21T09:42:55.634Z,32.47
2023-05-21T09:45:29.788Z,31.30
2023-05-21T09:47:57.558Z,30.83
2023-05-21T09:50:27.919Z,30.80
2023-05-21T09:52:56.734Z,31.83
2023-05-21T09:55:26.678Z,32.32
2023-05-21T09:57:54.853Z,33.09
2023-05-21T10:00:25.646Z,34.25
2023-05-21T10:03:09.802Z,35.10
2023-05-21T10:05:39.240Z,35.21
2023-05-21T10:08:09.375Z,35.44
2023-05-21T10:10:39.208Z,36.35
2023-05-21T10:13:10.728Z,35.80
2023-05-21T10:15:43.904Z,35.68
2023-05-21T10:18:13.591Z,35.33
2023-05-21T10:20:41.904Z,34.77
2023-05-21T10:23:10.084Z,33.67
2023-05-21T10:25:38.393Z,34.91
2023-05-21T10:28:07.285Z,36.45
2023-05-21T10:30:37.418Z,37.02
2023-05-21T10:33:06.249Z,36.87
2023-05-21T10:35:35.088Z,35.03
2023-05-21T10:38:05.246Z,33.21
2023-05-21T10:40:36.180Z,33.49
2023-05-21T10:43:27.061Z,34.79
2023-05-21T10:46:39.778Z,34.46
2023-05-21T10:50:04.801Z,35.35
2023-05-21T10:52:34.641Z,34.99
2023-05-21T10:55:06.393Z,34.43
2023-05-21T10:58:24.993Z,33.50
2023-05-21T11:00:55.807Z,34.81
2023-05-21T11:03:26.094Z,33.72
2023-05-21T11:05:58.034Z,31.96
2023-05-21T11:08:28.452Z,32.37
2023-05-21T11:10:58.395Z,33.26
2023-05-21T11:13:50.929Z,33.34
2023-05-21T11:16:21.261Z,33.92
2023-05-21T11:18:56.668Z,34.54
2023-05-21T11:21:38.281Z,35.73
2023-05-21T11:24:07.899Z,36.79
2023-05-21T11:26:48.041Z,37.34
2023-05-21T11:29:18.925Z,37.64
2023-05-21T11:31:48.452Z,38.10
2023-05-21T11:34:32.522Z,37.63
2023-05-21T11:37:20.839Z,37.31
2023-05-21T11:39:51.735Z,37.05
2023-05-21T11:42:38.901Z,35.50
2023-05-21T11:45:07.402Z,35.61
2023-05-21T11:47:35.537Z,35.56
2023-05-21T11:50:04.501Z,35.48
2023-05-21T11:52:33.350Z,36.34
2023-05-21T11:55:01.624Z,36.77
2023-05-21T11:57:33.452Z,35.86
2023-05-21T12:00:16.462Z,35.25
2023-05-21T12:02:52.384Z,35.80
2023-05-21T12:05:24.116Z,37.37
2023-05-21T12:07:52.114Z,38.31
2023-05-21T12:10:24.426Z,37.65
2023-05-21T12:13:18.777Z,37.95
2023-05-21T12:16:26.915Z,38.32
2023-05-21T12:19:10.906Z,37.88
2023-05-21T12:21:40.437Z,36.24
2023-05-21T12:24:12.796Z,36.56
2023-05-21T12:26:42.197Z,37.00
2023-05-21T12:29:11.303Z,37.63
2023-05-21T12:31:49.746Z,38.58
2023-05-21T12:34:38.779Z,39.52
2023-05-21T12:37:11.419Z,39.49
2023-05-21T12:39:54.287Z,38.74
2023-05-21T12:42:31.453Z,38.35
2023-05-21T12:45:10.588Z,37.47
2023-05-21T12:47:40.234Z,36.16
2023-05-21T12:50:13.812Z,34.76
2023-05-21T12:52:47.931Z,34.63
2023-05-21T12:55:26.243Z,35.00
2023-05-21T12:58:08.027Z,35.68
2023-05-21T13:00:42.254Z,35.05
2023-05-21T13:03:26.927Z,34.94
2023-05-21T13:06:03.663Z,33.62
2023-05-21T13:08:35.855Z,34.04
2023-05-21T13:11:07.190Z,33.71
2023-05-21T13:13:35.223Z,33.94
2023-05-21T13:16:18.079Z,34.63
2023-05-21T13:18:50.815Z,35.24
2023-05-21T13:21:18.626Z,34.83
2023-05-21T13:23:46.812Z,33.86
2023-05-21T13:26:14.629Z,34.13
2023-05-21T13:28:42.941Z,33.88
2023-05-21T13:31:14.249Z,34.34
2023-05-21T13:33:42.688Z,34.39
2023-05-21T13:36:11.117Z,34.42
2023-05-21T13:38:38.780Z,34.71
2023-05-21T13:41:07.047Z,35.29
2023-05-21T13:43:35.607Z,36.13
2023-05-21T13:46:03.904Z,36.36
2023-05-21T13:48:31.985Z,36.78
2023-05-21T13:51:01.877Z,35.95
2023-05-21T13:53:30.051Z,34.99
2023-05-21T13:55:57.983Z,34.19
2023-05-21T13:58:28.119Z,34.08
2023-05-21T14:00:57.858Z,34.68
2023-05-21T14:03:27.557Z,34.84
2023-05-21T14:05:55.903Z,35.01
2023-05-21T14:08:24.927Z,35.44
2023-05-21T14:10:55.402Z,35.82
2023-05-21T14:13:23.119Z,35.80
2023-05-21T14:15:56.197Z,35.10
2023-05-21T14:18:30.617Z,34.02
2023-05-21T14:21:01.331Z,33.02
2023-05-21T14:23:29.723Z,32.58
2023-05-21T14:25:58.737Z,31.93
2023-05-21T14:28:30.661Z,31.63
2023-05-21T14:31:00.901Z,32.45
2023-05-21T14:33:32.192Z,32.73
2023-05-21T14:38:57.709Z,34.06
2023-05-21T14:41:40.695Z,33.68
2023-05-21T14:44:09.667Z,34.18
2023-05-21T14:46:39.604Z,34.75
2023-05-21T14:49:07.856Z,34.82
2023-05-21T14:51:35.655Z,34.98
2023-05-21T14:54:03.559Z,34.14
2023-05-21T14:56:31.259Z,33.42
2023-05-21T14:58:58.957Z,33.99
2023-05-21T15:01:26.882Z,34.12
2023-05-21T15:03:58.720Z,34.60
2023-05-21T15:06:26.532Z,34.98
2023-05-21T15:08:54.550Z,34.10
2023-05-21T15:11:22.426Z,34.71
2023-05-21T15:13:50.432Z,35.23
2023-05-21T15:16:19.724Z,35.63
2023-05-21T15:18:48.007Z,35.35
2023-05-21T15:21:16.007Z,36.04
2023-05-21T15:23:43.930Z,37.41
2023-05-21T15:26:11.630Z,38.44
2023-05-21T15:28:39.527Z,38.57
2023-05-21T15:31:07.336Z,38.28
2023-05-21T15:33:35.391Z,38.45
2023-05-21T15:36:03.303Z,38.63
2023-05-21T15:38:31.249Z,38.39
2023-05-21T15:40:59.056Z,38.11
2023-05-21T15:43:27.272Z,39.48
2023-05-21T15:45:55.061Z,40.68
2023-05-21T15:48:23.029Z,40.94
2023-05-21T15:50:50.828Z,41.19
2023-05-21T15:53:19.045Z,39.91
2023-05-21T15:55:46.786Z,36.36
2023-05-21T15:58:14.661Z,33.60
2023-05-21T16:00:42.489Z,31.48
2023-05-21T16:03:12.016Z,30.25
2023-05-21T16:05:39.828Z,29.64
2023-05-21T16:08:10.654Z,29.45
2023-05-21T16:10:40.148Z,28.97
2023-05-21T16:13:07.911Z,28.89
2023-05-21T16:15:36.152Z,28.70
2023-05-21T16:18:04.624Z,28.48
2023-05-21T16:20:33.583Z,28.41
2023-05-21T16:23:03.795Z,28.20
2023-05-21T16:25:31.717Z,27.82
2023-05-21T16:27:59.469Z,27.59
2023-05-21T16:30:29.702Z,27.32
2023-05-21T16:32:57.503Z,26.99
2023-05-21T16:35:25.998Z,26.93
2023-05-21T16:37:55.204Z,26.55
2023-05-21T16:40:23.225Z,26.19
2023-05-21T16:42:52.926Z,25.88
2023-05-21T16:45:21.542Z,26.06
2023-05-21T16:47:54.220Z,26.08
2023-05-21T16:50:23.040Z,25.88
2023-05-21T16:52:51.098Z,25.86
2023-05-21T16:55:18.804Z,25.82
2023-05-21T16:57:46.486Z,25.68
2023-05-21T17:00:14.600Z,25.53
2023-05-21T17:02:42.485Z,25.60
2023-05-21T17:05:10.358Z,25.38
2023-05-21T17:07:51.618Z,25.10
2023-05-21T17:10:19.993Z,25.22
2023-05-21T17:12:47.926Z,25.21
2023-05-21T17:15:15.769Z,24.99
2023-05-21T17:17:46.865Z,25.09
2023-05-21T17:23:43.349Z,24.71
2023-05-21T17:26:11.180Z,24.59
2023-05-21T17:28:38.884Z,24.66
2023-05-21T17:31:08.961Z,24.58
2023-05-21T17:33:37.629Z,24.57
2023-05-21T17:36:06.897Z,24.66
2023-05-21T17:38:34.620Z,24.62
2023-05-21T17:41:05.662Z,24.44
2023-05-21T17:43:33.725Z,24.42
2023-05-21T17:46:01.541Z,24.40
2023-05-21T17:48:29.423Z,24.36
2023-05-21T17:50:57.443Z,24.33
2023-05-21T17:53:26.037Z,24.32
2023-05-21T17:55:53.855Z,24.24
2023-05-21T17:58:21.589Z,24.14
2023-05-21T18:01:09.998Z,24.02
2023-05-21T18:04:04.999Z,23.91
2023-05-21T18:06:32.867Z,23.89
2023-05-21T18:09:54.318Z,23.84
2023-05-21T18:12:37.993Z,23.67
2023-05-21T18:15:06.595Z,23.53
2023-05-21T18:17:34.559Z,23.44
2023-05-21T18:20:04.333Z,23.24
2023-05-21T18:22:32.600Z,22.96
2023-05-21T18:25:11.743Z,22.88
2023-05-21T18:28:04.274Z,22.80
2023-05-21T18:31:00.528Z,22.74
2023-05-21T18:33:33.746Z,22.64
2023-05-21T18:36:01.581Z,22.56
2023-05-21T18:38:29.691Z,22.42
2023-05-21T18:40:57.454Z,22.29
2023-05-21T18:43:25.925Z,22.21
2023-05-21T18:45:55.529Z,22.16
2023-05-21T18:48:24.107Z,22.08
2023-05-21T18:50:56.899Z,21.88
2023-05-21T18:53:25.421Z,21.73
2023-05-21T18:55:53.264Z,21.61
2023-05-21T18:58:21.719Z,21.47
2023-05-21T19:00:49.727Z,21.32
2023-05-21T19:03:17.694Z,21.22
2023-05-21T19:05:45.607Z,21.11
2023-05-21T19:08:13.580Z,20.95
2023-05-21T19:10:41.667Z,20.84
2023-05-21T19:13:09.720Z,20.69
2023-05-21T19:15:37.758Z,20.53
2023-05-21T19:18:05.693Z,20.45
2023-05-21T19:20:33.560Z,20.37
2023-05-21T19:23:02.063Z,20.27
2023-05-21T19:25:31.502Z,20.16
2023-05-21T19:28:00.788Z,20.08
2023-05-21T19:30:28.452Z,19.96
2023-05-21T19:33:00.806Z,19.83
2023-05-21T19:35:28.778Z,19.71
2023-05-21T19:38:00.629Z,19.64
2023-05-21T19:40:30.362Z,19.62
2023-05-21T19:42:58.049Z,19.59
2023-05-21T19:45:26.674Z,19.55
2023-05-21T19:47:54.503Z,19.46
2023-05-21T19:50:22.230Z,19.35
2023-05-21T19:52:49.880Z,19.26
2023-05-21T19:55:20.062Z,19.16
2023-05-21T19:57:47.798Z,19.09
2023-05-21T20:00:16.973Z,19.02
2023-05-21T20:02:44.940Z,18.93
2023-05-21T20:05:12.908Z,18.87
2023-05-21T20:07:41.513Z,18.80
2023-05-21T20:10:09.356Z,18.77
2023-05-21T20:12:37.857Z,18.73
2023-05-21T20:15:06.919Z,18.69
2023-05-21T20:17:36.219Z,18.60
2023-05-21T20:20:09.946Z,18.51
2023-05-21T20:22:37.712Z,18.39
2023-05-21T20:25:07.589Z,18.34
2023-05-21T20:27:36.092Z,18.24
2023-05-21T20:30:07.281Z,18.17
2023-05-21T20:32:35.036Z,18.07
2023-05-21T20:35:03.956Z,17.97
2023-05-21T20:37:34.795Z,17.87
2023-05-21T20:40:02.474Z,17.74
2023-05-21T20:42:34.811Z,17.70
2023-05-21T20:45:04.191Z,17.63
2023-05-21T20:47:32.072Z,17.54
2023-05-21T20:50:02.763Z,17.48
2023-05-21T20:52:32.120Z,17.37
2023-05-21T20:54:59.939Z,17.24
2023-05-21T20:57:28.389Z,17.18
2023-05-21T20:59:56.712Z,17.11
2023-05-21T21:02:24.513Z,17.10
2023-05-21T21:04:53.916Z,17.05
2023-05-21T21:07:21.890Z,17.00
2023-05-21T21:09:49.592Z,16.94
2023-05-21T21:14:48.409Z,16.80
2023-05-21T21:17:16.235Z,16.76
2023-05-21T21:19:44.051Z,16.74
2023-05-21T21:22:11.846Z,16.70
2023-05-21T21:24:39.620Z,16.66
2023-05-21T21:27:07.451Z,16.65
2023-05-21T21:29:35.136Z,16.61
2023-05-21T21:32:02.851Z,16.54
2023-05-21T21:34:30.535Z,16.48
2023-05-21T21:36:58.194Z,16.39
2023-05-21T21:39:26.830Z,16.33
2023-05-21T21:41:54.796Z,16.30
2023-05-21T21:44:22.528Z,16.26
2023-05-21T21:46:50.378Z,16.21
2023-05-21T21:49:18.227Z,16.16
2023-05-21T21:51:46.219Z,16.11
2023-05-21T21:54:13.976Z,16.01
2023-05-21T21:56:41.725Z,15.96
2023-05-21T21:59:09.410Z,15.93
2023-05-21T22:01:37.403Z,15.91
2023-05-21T22:04:05.551Z,15.85
2023-05-21T22:06:33.327Z,15.83
2023-05-21T22:09:01.632Z,15.83
2023-05-21T22:11:29.398Z,15.86
2023-05-21T22:13:57.351Z,15.87
2023-05-21T22:16:25.154Z,15.80
2023-05-21T22:18:54.221Z,15.75
2023-05-21T22:21:27.075Z,15.74
2023-05-21T22:23:56.135Z,15.71
2023-05-21T22:26:23.852Z,15.67
2023-05-21T22:28:51.696Z,15.61
2023-05-21T22:31:19.476Z,15.55
2023-05-21T22:33:47.417Z,15.52
2023-05-21T22:36:15.100Z,15.49
2023-05-21T22:38:43.909Z,15.50
2023-05-21T22:41:11.722Z,15.51
2023-05-21T22:43:39.468Z,15.52
2023-05-21T22:46:08.125Z,15.55
2023-05-21T22:48:37.307Z,15.52
2023-05-21T22:51:05.741Z,15.50
2023-05-21T22:53:33.563Z,15.49
2023-05-21T22:56:01.342Z,15.49
2023-05-21T22:58:31.732Z,15.44
2023-05-21T23:00:59.547Z,15.36
2023-05-21T23:03:27.299Z,15.31
2023-05-21T23:05:55.022Z,15.29
2023-05-21T23:08:52.002Z,15.21
2023-05-21T23:11:19.740Z,15.06
2023-05-21T23:13:47.383Z,15.04
2023-05-21T23:16:15.064Z,15.03
2023-05-21T23:18:43.796Z,14.98
2023-05-21T23:21:11.574Z,14.94
2023-05-21T23:23:39.293Z,14.90
2023-05-21T23:26:07.136Z,14.88
2023-05-21T23:28:37.473Z,14.83
2023-05-21T23:31:06.179Z,14.77
2023-05-21T23:33:35.004Z,14.71
2023-05-21T23:36:03.078Z,14.67
2023-05-21T23:38:30.892Z,14.61
2023-05-21T23:40:58.951Z,14.58
2023-05-21T23:43:26.823Z,14.56
2023-05-21T23:45:55.033Z,14.51
2023-05-21T23:48:24.605Z,14.49
2023-05-21T23:50:52.613Z,14.46
2023-05-21T23:53:20.371Z,14.43
